createdAt,value
2017-07-25T05:31:34.970Z,30
2017-07-25T05:32:00.478Z,30
2017-07-25T05:32:25.939Z,30
2017-07-25T05:32:51.394Z,30
2017-07-25T05:33:17.029Z,30
2017-07-25T05:33:42.481Z,30
2017-07-25T05:34:07.919Z,30
2017-07-25T05:34:33.389Z,30
2017-07-25T05:34:58.807Z,35
2017-07-25T05:35:24.280Z,30
2017-07-25T05:35:49.731Z,35
2017-07-25T05:36:15.178Z,35
2017-07-25T05:36:40.658Z,30
2017-07-25T05:37:06.072Z,30
2017-07-25T05:37:31.538Z,30
2017-07-25T05:37:56.985Z,30
2017-07-25T05:38:22.437Z,30
2017-07-25T05:38:47.915Z,35
2017-07-25T05:39:13.393Z,30
2017-07-25T05:39:38.831Z,30
2017-07-25T05:40:04.246Z,30
2017-07-25T05:40:29.724Z,35
2017-07-25T05:40:55.201Z,35
2017-07-25T05:41:20.627Z,35
2017-07-25T05:41:46.097Z,35
2017-07-25T05:42:11.514Z,40
2017-07-25T05:42:36.979Z,40
2017-07-25T05:43:02.416Z,40
2017-07-25T05:43:27.914Z,35
2017-07-25T05:43:53.308Z,35
2017-07-25T05:44:18.816Z,40
2017-07-25T05:44:44.224Z,40
2017-07-25T05:45:09.684Z,40
2017-07-25T05:45:35.158Z,40
2017-07-25T05:46:00.583Z,45
2017-07-25T05:46:26.045Z,40
2017-07-25T05:46:51.491Z,40
2017-07-25T05:47:17.053Z,40
2017-07-25T05:47:42.502Z,40
2017-07-25T05:48:08.112Z,40
2017-07-25T05:48:33.579Z,40
2017-07-25T05:48:59.019Z,45
2017-07-25T05:49:24.464Z,45
2017-07-25T05:49:49.913Z,45
2017-07-25T05:50:15.389Z,45
2017-07-25T05:50:40.836Z,50
2017-07-25T05:51:06.345Z,55
2017-07-25T05:51:31.782Z,50
2017-07-25T05:51:57.258Z,50
2017-07-25T05:52:22.724Z,55
2017-07-25T05:52:48.145Z,55
2017-07-25T05:53:13.665Z,50
2017-07-25T05:53:39.133Z,50
2017-07-25T05:54:04.598Z,50
2017-07-25T05:54:30.026Z,45
2017-07-25T05:54:55.605Z,45
2017-07-25T05:55:21.014Z,40
2017-07-25T05:55:46.504Z,40
2017-07-25T05:56:11.912Z,45
2017-07-25T05:56:37.367Z,45
2017-07-25T05:57:02.802Z,45
2017-07-25T05:57:28.307Z,45
2017-07-25T05:57:53.783Z,45
2017-07-25T05:58:19.189Z,45
2017-07-25T05:58:44.660Z,45
2017-07-25T05:59:10.092Z,40
2017-07-25T05:59:35.550Z,40
2017-07-25T06:00:00.987Z,45
2017-07-25T06:00:26.448Z,45
2017-07-25T06:00:51.922Z,45
2017-07-25T06:01:17.379Z,45
2017-07-25T06:01:42.936Z,45
2017-07-25T06:02:08.391Z,40
2017-07-25T06:02:33.870Z,40
2017-07-25T06:02:59.379Z,40
2017-07-25T06:03:24.866Z,45
2017-07-25T06:03:50.309Z,45
2017-07-25T06:04:15.775Z,45
2017-07-25T06:04:41.270Z,45
2017-07-25T06:05:06.821Z,45
2017-07-25T06:05:32.208Z,45
2017-07-25T06:05:57.642Z,40
2017-07-25T06:06:23.192Z,40
2017-07-25T06:06:48.658Z,35
2017-07-25T06:07:14.139Z,35
2017-07-25T06:07:39.633Z,35
2017-07-25T06:08:05.066Z,35
2017-07-25T06:08:30.569Z,30
2017-07-25T06:08:56.049Z,30
2017-07-25T06:09:21.523Z,35
2017-07-25T06:09:46.968Z,35
2017-07-25T06:10:12.409Z,35
2017-07-25T06:10:37.984Z,40
2017-07-25T06:11:03.441Z,40
2017-07-25T06:11:28.916Z,40
2017-07-25T06:11:54.400Z,45
2017-07-25T06:12:19.895Z,45
2017-07-25T06:12:45.407Z,45
2017-07-25T06:13:10.819Z,45
2017-07-25T06:13:36.295Z,50
2017-07-25T06:14:01.697Z,50
2017-07-25T06:14:27.170Z,50
2017-07-25T06:14:52.614Z,50
2017-07-25T06:15:18.071Z,55
2017-07-25T06:15:43.523Z,55
2017-07-25T06:16:08.976Z,55
2017-07-25T06:16:34.455Z,55
2017-07-25T06:16:59.857Z,55
2017-07-25T06:17:25.346Z,55
2017-07-25T06:17:50.791Z,55
2017-07-25T06:18:16.245Z,50
2017-07-25T06:18:41.696Z,50
2017-07-25T06:19:07.163Z,45
2017-07-25T06:19:32.626Z,45
2017-07-25T06:19:58.054Z,40
2017-07-25T06:20:23.518Z,40
2017-07-25T06:20:48.999Z,40
2017-07-25T06:21:14.449Z,40
2017-07-25T06:21:39.930Z,45
2017-07-25T06:22:05.467Z,45
2017-07-25T06:22:30.940Z,50
2017-07-25T06:23:55.076Z,45
2017-07-25T06:24:20.378Z,45
2017-07-25T06:24:45.824Z,40
2017-07-25T06:25:11.279Z,40
2017-07-25T06:25:36.772Z,40
2017-07-25T06:26:02.194Z,40
2017-07-25T06:26:27.697Z,45
2017-07-25T06:26:53.185Z,45
2017-07-25T06:27:18.658Z,45
2017-07-25T06:27:44.244Z,50
2017-07-25T06:28:09.645Z,50
2017-07-25T06:28:35.074Z,50
2017-07-25T06:29:00.547Z,50
2017-07-25T06:29:26.054Z,55
2017-07-25T06:29:51.498Z,60
2017-07-25T06:30:16.944Z,65
2017-07-25T06:30:42.366Z,65
2017-07-25T06:31:07.885Z,65
2017-07-25T06:31:33.365Z,70
2017-07-25T06:31:58.845Z,65
2017-07-25T06:32:24.305Z,65
2017-07-25T06:32:49.793Z,65
2017-07-25T06:33:15.270Z,60
2017-07-25T06:33:40.916Z,60
2017-07-25T06:34:06.243Z,60
2017-07-25T06:34:31.722Z,60
2017-07-25T06:34:57.220Z,60
2017-07-25T06:35:22.630Z,65
2017-07-25T06:35:48.109Z,65
2017-07-25T06:36:13.593Z,65
2017-07-25T06:36:39.100Z,65
2017-07-25T06:37:04.489Z,70
2017-07-25T06:37:29.953Z,70
2017-07-25T06:37:55.431Z,70
2017-07-25T06:38:20.875Z,70
2017-07-25T06:38:46.305Z,65
2017-07-25T06:39:11.755Z,65
2017-07-25T06:39:37.198Z,60
2017-07-25T06:40:02.702Z,60
2017-07-25T06:40:28.177Z,60
2017-07-25T06:40:53.654Z,55
2017-07-25T06:41:19.172Z,55
2017-07-25T06:41:44.584Z,55
2017-07-25T06:42:10.062Z,55
2017-07-25T06:42:35.530Z,60
2017-07-25T06:43:01.074Z,60
2017-07-25T06:43:26.544Z,65
2017-07-25T06:43:52.053Z,70
2017-07-25T06:44:17.487Z,70
2017-07-25T06:44:42.958Z,70
2017-07-25T06:45:08.421Z,70
2017-07-25T06:45:33.857Z,70
2017-07-25T06:45:59.353Z,70
2017-07-25T06:46:24.798Z,70
2017-07-25T06:46:50.220Z,70
2017-07-25T06:47:15.675Z,70
2017-07-25T06:47:41.143Z,65
2017-07-25T06:48:06.581Z,65
2017-07-25T06:48:32.034Z,65
2017-07-25T06:48:57.504Z,60
2017-07-25T06:49:22.954Z,60
2017-07-25T06:49:48.400Z,60
2017-07-25T06:50:13.895Z,60
2017-07-25T06:50:39.309Z,65
2017-07-25T06:51:04.865Z,70
2017-07-25T06:51:30.381Z,70
2017-07-25T06:51:55.816Z,75
2017-07-25T06:52:21.299Z,75
2017-07-25T06:52:46.723Z,75
2017-07-25T06:53:12.177Z,75
2017-07-25T06:53:37.667Z,75
2017-07-25T06:54:03.117Z,70
2017-07-25T06:54:28.561Z,70
2017-07-25T06:54:54.081Z,70
2017-07-25T06:55:19.485Z,70
2017-07-25T06:55:44.953Z,75
2017-07-25T06:56:10.425Z,75
2017-07-25T06:56:35.846Z,75
2017-07-25T06:57:01.317Z,75
2017-07-25T06:57:26.769Z,75
2017-07-25T06:57:52.209Z,75
2017-07-25T06:58:17.689Z,75
2017-07-25T06:58:43.167Z,70
2017-07-25T06:59:08.631Z,70
2017-07-25T06:59:34.080Z,70
2017-07-25T06:59:59.540Z,70
2017-07-25T07:00:25.020Z,70
2017-07-25T07:00:50.522Z,60
2017-07-25T07:01:15.934Z,65
2017-07-25T07:01:41.407Z,65
2017-07-25T07:02:06.831Z,65
2017-07-25T07:02:32.331Z,65
2017-07-25T07:02:57.875Z,65
2017-07-25T07:03:23.414Z,60
2017-07-25T07:03:48.817Z,60
2017-07-25T07:04:14.319Z,60
2017-07-25T07:04:39.781Z,60
2017-07-25T07:05:05.298Z,65
2017-07-25T07:05:30.744Z,65
2017-07-25T07:05:56.209Z,60
2017-07-25T07:06:21.660Z,65
2017-07-25T07:06:47.181Z,65
2017-07-25T07:07:12.579Z,70
2017-07-25T07:07:38.114Z,65
2017-07-25T07:08:03.581Z,60
2017-07-25T07:08:29.033Z,60
2017-07-25T07:08:54.666Z,55
2017-07-25T07:09:19.989Z,55
2017-07-25T07:09:45.464Z,60
2017-07-25T07:10:10.956Z,55
2017-07-25T07:10:36.442Z,55
2017-07-25T07:11:01.828Z,60
2017-07-25T07:11:27.307Z,60
2017-07-25T07:11:52.757Z,60
2017-07-25T07:12:18.252Z,65
2017-07-25T07:12:43.625Z,60
2017-07-25T07:13:09.085Z,65
2017-07-25T07:13:34.540Z,60
2017-07-25T07:13:59.973Z,50
2017-07-25T07:14:25.431Z,45
2017-07-25T07:14:50.919Z,50
2017-07-25T07:15:16.325Z,50
2017-07-25T07:15:41.795Z,50
2017-07-25T07:16:07.268Z,50
2017-07-25T07:16:32.729Z,50
2017-07-25T07:16:58.201Z,50
2017-07-25T07:17:23.742Z,55
2017-07-25T07:17:49.106Z,55
2017-07-25T07:18:14.604Z,50
2017-07-25T07:18:40.085Z,45
2017-07-25T07:19:05.503Z,45
2017-07-25T07:19:31.070Z,45
2017-07-25T07:19:56.402Z,45
2017-07-25T07:20:21.887Z,45
2017-07-25T07:20:47.326Z,45
2017-07-25T07:21:12.802Z,45
2017-07-25T07:21:38.263Z,40
2017-07-25T07:22:03.741Z,40
2017-07-25T07:22:29.183Z,40
2017-07-25T07:22:54.673Z,40
2017-07-25T07:23:20.121Z,40
2017-07-25T07:23:45.570Z,45
2017-07-25T07:24:11.035Z,45
2017-07-25T07:24:36.509Z,50
2017-07-25T07:25:01.946Z,50
2017-07-25T07:25:27.418Z,55
2017-07-25T07:25:52.857Z,60
2017-07-25T07:26:18.328Z,70
2017-07-25T07:26:43.920Z,80
2017-07-25T07:27:09.355Z,80
2017-07-25T07:27:34.812Z,80
2017-07-25T07:28:00.306Z,80
2017-07-25T07:28:25.721Z,90
2017-07-25T07:28:51.197Z,100
2017-07-25T07:29:16.616Z,110
2017-07-25T07:29:42.093Z,120
2017-07-25T07:30:07.581Z,120
2017-07-25T07:30:33.020Z,115
2017-07-25T07:30:58.570Z,115
2017-07-25T07:31:23.994Z,120
2017-07-25T07:31:49.484Z,130
2017-07-25T07:32:14.965Z,140
2017-07-25T07:32:40.438Z,140
2017-07-25T07:33:05.875Z,140
2017-07-25T07:33:31.321Z,130
2017-07-25T07:33:56.811Z,120
2017-07-25T07:34:22.272Z,120
2017-07-25T07:34:47.674Z,125
2017-07-25T07:35:13.174Z,140
2017-07-25T07:35:38.581Z,150
2017-07-25T07:36:04.066Z,155
2017-07-25T07:36:29.519Z,160
2017-07-25T07:36:54.998Z,165
2017-07-25T07:37:20.446Z,165
2017-07-25T07:37:45.933Z,165
2017-07-25T07:38:11.413Z,165
2017-07-25T07:38:36.918Z,165
2017-07-25T07:39:02.409Z,165
2017-07-25T07:39:27.877Z,165
2017-07-25T07:39:53.278Z,165
2017-07-25T07:40:18.773Z,165
2017-07-25T07:40:44.231Z,165
2017-07-25T07:41:09.707Z,165
2017-07-25T07:41:35.136Z,160
2017-07-25T07:42:00.650Z,155
2017-07-25T07:42:26.050Z,155
2017-07-25T07:42:51.500Z,155
2017-07-25T07:43:16.920Z,150
2017-07-25T07:43:42.419Z,150
2017-07-25T07:44:07.905Z,155
2017-07-25T07:44:33.370Z,150
2017-07-25T07:44:58.813Z,150
2017-07-25T07:45:24.282Z,140
2017-07-25T07:45:49.861Z,125
2017-07-25T07:46:15.300Z,115
2017-07-25T07:46:40.798Z,100
2017-07-25T07:47:06.322Z,110
2017-07-25T07:47:31.785Z,135
2017-07-25T07:47:57.253Z,160
2017-07-25T07:48:22.676Z,170
2017-07-25T07:48:48.158Z,170
2017-07-25T07:49:13.648Z,155
2017-07-25T07:49:39.132Z,130
2017-07-25T07:50:04.578Z,105
2017-07-25T07:50:30.049Z,85
2017-07-25T07:50:55.543Z,75
2017-07-25T07:51:20.956Z,70
2017-07-25T07:51:46.389Z,75
2017-07-25T07:52:11.835Z,80
2017-07-25T07:52:37.299Z,90
2017-07-25T07:53:02.816Z,105
2017-07-25T07:53:28.261Z,110
2017-07-25T07:53:53.746Z,120
2017-07-25T07:54:19.229Z,125
2017-07-25T07:54:44.716Z,120
2017-07-25T07:55:10.218Z,120
2017-07-25T07:55:35.692Z,120
2017-07-25T07:56:01.184Z,120
2017-07-25T07:56:26.656Z,115
2017-07-25T07:56:52.110Z,105
2017-07-25T07:57:17.588Z,95
2017-07-25T07:57:43.074Z,85
2017-07-25T07:58:08.563Z,75
2017-07-25T07:58:34.073Z,70
2017-07-25T07:58:59.528Z,85
2017-07-25T07:59:25.064Z,135
2017-07-25T07:59:50.523Z,175
2017-07-25T08:00:16.023Z,185
2017-07-25T08:00:41.459Z,175
2017-07-25T08:01:06.929Z,150
2017-07-25T08:01:32.454Z,170
2017-07-25T08:01:57.900Z,170
2017-07-25T08:02:23.373Z,145
2017-07-25T08:02:48.853Z,145
2017-07-25T08:03:14.272Z,165
2017-07-25T08:03:39.760Z,160
2017-07-25T08:04:05.286Z,160
2017-07-25T08:04:30.753Z,160
2017-07-25T08:04:56.231Z,150
2017-07-25T08:05:21.652Z,155
2017-07-25T08:05:47.146Z,165
2017-07-25T08:06:12.636Z,200
2017-07-25T08:06:38.147Z,210
2017-07-25T08:07:03.632Z,215
2017-07-25T08:07:29.109Z,215
2017-07-25T08:07:54.610Z,215
2017-07-25T08:08:20.086Z,220
2017-07-25T08:08:45.609Z,220
2017-07-25T08:09:11.058Z,215
2017-07-25T08:09:36.622Z,215
2017-07-25T08:10:02.026Z,215
2017-07-25T08:10:27.518Z,215
2017-07-25T08:10:53.032Z,210
2017-07-25T08:11:18.521Z,200
2017-07-25T08:11:43.966Z,190
2017-07-25T08:12:09.425Z,180
2017-07-25T08:12:35.003Z,180
2017-07-25T08:13:00.463Z,185
2017-07-25T08:13:25.916Z,180
2017-07-25T08:13:51.338Z,185
2017-07-25T08:14:16.933Z,185
2017-07-25T08:14:42.400Z,190
2017-07-25T08:15:07.899Z,190
2017-07-25T08:15:33.409Z,195
2017-07-25T08:15:58.814Z,185
2017-07-25T08:16:24.284Z,190
2017-07-25T08:16:49.823Z,195
2017-07-25T08:17:15.237Z,205
2017-07-25T08:17:40.776Z,215
2017-07-25T08:18:06.214Z,215
2017-07-25T08:18:31.683Z,220
2017-07-25T08:18:57.182Z,215
2017-07-25T08:19:22.639Z,200
2017-07-25T08:19:48.045Z,200
2017-07-25T08:20:13.553Z,200
2017-07-25T08:20:39.052Z,185
2017-07-25T08:21:04.622Z,185
2017-07-25T08:21:30.179Z,175
2017-07-25T08:21:55.492Z,170
2017-07-25T08:22:20.937Z,160
2017-07-25T08:22:46.377Z,175
2017-07-25T08:23:11.822Z,175
2017-07-25T08:23:37.317Z,195
2017-07-25T08:24:02.768Z,215
2017-07-25T08:24:28.240Z,195
2017-07-25T08:24:53.701Z,220
2017-07-25T08:25:19.165Z,250
2017-07-25T08:25:44.634Z,250
2017-07-25T08:26:10.086Z,250
2017-07-25T08:26:35.605Z,225
2017-07-25T08:27:01.047Z,225
2017-07-25T08:27:26.533Z,220
2017-07-25T08:27:52.046Z,210
2017-07-25T08:28:17.477Z,200
2017-07-25T08:28:42.923Z,180
2017-07-25T08:29:08.371Z,170
2017-07-25T08:29:33.823Z,165
2017-07-25T08:29:59.298Z,160
2017-07-25T08:30:24.776Z,145
2017-07-25T08:30:50.198Z,140
2017-07-25T08:31:15.711Z,125
2017-07-25T08:31:41.278Z,120
2017-07-25T08:32:06.739Z,135
2017-07-25T08:32:32.146Z,150
2017-07-25T08:32:57.610Z,155
2017-07-25T08:33:23.087Z,150
2017-07-25T08:33:48.514Z,150
2017-07-25T08:34:13.985Z,165
2017-07-25T08:34:39.465Z,155
2017-07-25T08:35:04.960Z,140
2017-07-25T08:35:30.414Z,150
2017-07-25T08:35:55.935Z,170
2017-07-25T08:36:21.443Z,175
2017-07-25T08:36:46.855Z,170
2017-07-25T08:37:12.391Z,175
2017-07-25T08:37:37.826Z,160
2017-07-25T08:38:03.344Z,155
2017-07-25T08:38:28.744Z,155
2017-07-25T08:38:54.306Z,160
2017-07-25T08:39:19.712Z,155
2017-07-25T08:39:45.206Z,170
2017-07-25T08:40:10.631Z,180
2017-07-25T08:40:36.101Z,165
2017-07-25T08:41:01.651Z,140
2017-07-25T08:41:27.166Z,175
2017-07-25T08:41:52.712Z,215
2017-07-25T08:42:18.140Z,240
2017-07-25T08:42:43.592Z,225
2017-07-25T08:43:09.095Z,210
2017-07-25T08:43:34.584Z,190
2017-07-25T08:44:00.085Z,180
2017-07-25T08:44:25.492Z,170
2017-07-25T08:44:51.002Z,145
2017-07-25T08:45:16.430Z,135
2017-07-25T08:45:41.952Z,135
2017-07-25T08:46:07.378Z,125
2017-07-25T08:46:32.857Z,110
2017-07-25T08:46:58.295Z,110
2017-07-25T08:47:23.799Z,145
2017-07-25T08:47:49.301Z,165
2017-07-25T08:48:14.757Z,170
2017-07-25T08:48:40.194Z,160
2017-07-25T08:49:05.645Z,135
2017-07-25T08:49:31.162Z,130
2017-07-25T08:49:56.641Z,125
2017-07-25T08:50:22.172Z,140
2017-07-25T08:50:47.614Z,150
2017-07-25T08:51:13.103Z,140
2017-07-25T08:51:38.553Z,140
2017-07-25T08:52:04.053Z,130
2017-07-25T08:52:29.501Z,115
2017-07-25T08:52:54.952Z,115
2017-07-25T08:53:20.428Z,120
2017-07-25T08:53:46.015Z,120
2017-07-25T08:54:11.472Z,135
2017-07-25T08:54:36.948Z,145
2017-07-25T08:55:02.395Z,170
2017-07-25T08:55:27.846Z,165
2017-07-25T08:55:53.299Z,150
2017-07-25T08:56:18.727Z,185
2017-07-25T08:56:44.195Z,200
2017-07-25T08:57:09.636Z,195
2017-07-25T08:57:35.105Z,205
2017-07-25T08:58:00.568Z,220
2017-07-25T08:58:26.040Z,220
2017-07-25T08:58:51.517Z,210
2017-07-25T08:59:16.932Z,195
2017-07-25T08:59:42.490Z,200
2017-07-25T09:00:07.933Z,200
2017-07-25T09:00:33.369Z,185
2017-07-25T09:00:58.823Z,175
2017-07-25T09:01:24.491Z,175
2017-07-25T09:01:49.946Z,155
2017-07-25T09:02:15.400Z,140
2017-07-25T09:02:40.864Z,140
2017-07-25T09:03:06.297Z,155
2017-07-25T09:03:31.765Z,150
2017-07-25T09:03:57.248Z,130
2017-07-25T09:04:22.710Z,110
2017-07-25T09:04:48.157Z,115
2017-07-25T09:05:13.641Z,120
2017-07-25T09:05:39.046Z,125
2017-07-25T09:06:04.534Z,120
2017-07-25T09:06:29.956Z,125
2017-07-25T09:06:55.461Z,140
2017-07-25T09:07:20.915Z,150
2017-07-25T09:07:46.416Z,140
2017-07-25T09:08:11.923Z,165
2017-07-25T09:08:37.375Z,195
2017-07-25T09:09:02.839Z,195
2017-07-25T09:09:28.369Z,200
2017-07-25T09:09:53.847Z,210
2017-07-25T09:10:19.315Z,240
2017-07-25T09:10:44.791Z,260
2017-07-25T09:11:10.261Z,260
2017-07-25T09:11:35.804Z,270
2017-07-25T09:12:01.249Z,270
2017-07-25T09:12:26.694Z,255
2017-07-25T09:12:52.144Z,245
2017-07-25T09:13:17.691Z,220
2017-07-25T09:13:43.180Z,225
2017-07-25T09:14:08.678Z,205
2017-07-25T09:14:34.156Z,185
2017-07-25T09:14:59.662Z,160
2017-07-25T09:15:25.257Z,150
2017-07-25T09:15:50.722Z,135
2017-07-25T09:16:16.174Z,155
2017-07-25T09:16:41.680Z,155
2017-07-25T09:17:07.113Z,160
2017-07-25T09:17:32.588Z,165
2017-07-25T09:17:58.089Z,155
2017-07-25T09:18:23.536Z,155
2017-07-25T09:18:49.048Z,120
2017-07-25T09:19:14.479Z,90
2017-07-25T09:19:39.998Z,75
2017-07-25T09:20:05.428Z,50
2017-07-25T09:20:30.922Z,35
2017-07-25T09:20:56.392Z,30
2017-07-25T09:21:21.864Z,25
2017-07-25T09:21:47.443Z,25
2017-07-25T09:22:12.903Z,25
2017-07-25T09:22:38.350Z,25
2017-07-25T09:23:03.856Z,40
2017-07-25T09:23:29.350Z,45
2017-07-25T09:23:54.857Z,45
2017-07-25T09:24:20.450Z,45
2017-07-25T09:24:45.910Z,55
2017-07-25T09:25:11.295Z,85
2017-07-25T09:25:36.902Z,110
2017-07-25T09:26:02.442Z,120
2017-07-25T09:26:28.010Z,125
2017-07-25T09:26:53.407Z,125
2017-07-25T09:27:18.894Z,120
2017-07-25T09:27:44.394Z,130
2017-07-25T09:28:09.829Z,130
2017-07-25T09:28:35.297Z,130
2017-07-25T09:29:00.776Z,135
2017-07-25T09:29:26.196Z,135
2017-07-25T09:29:51.664Z,140
2017-07-25T09:30:17.121Z,145
2017-07-25T09:30:42.562Z,150
2017-07-25T09:31:08.067Z,150
2017-07-25T09:31:33.496Z,145
2017-07-25T09:31:58.950Z,135
2017-07-25T09:32:24.456Z,120
2017-07-25T09:32:50.036Z,120
2017-07-25T09:33:15.399Z,130
2017-07-25T09:33:40.882Z,135
2017-07-25T09:34:06.286Z,135
2017-07-25T09:34:31.755Z,140
2017-07-25T09:34:57.230Z,140
2017-07-25T09:35:22.649Z,130
2017-07-25T09:35:48.105Z,115
2017-07-25T09:36:13.534Z,110
2017-07-25T09:36:39.001Z,110
2017-07-25T09:37:04.516Z,105
2017-07-25T09:37:30.000Z,105
2017-07-25T09:37:55.420Z,115
2017-07-25T09:38:20.904Z,125
2017-07-25T09:38:46.392Z,135
2017-07-25T09:39:11.844Z,145
2017-07-25T09:39:37.276Z,150
2017-07-25T09:40:02.745Z,155
2017-07-25T09:40:28.219Z,155
2017-07-25T09:40:53.707Z,160
2017-07-25T09:41:19.160Z,165
2017-07-25T09:41:44.674Z,165
2017-07-25T09:42:10.154Z,170
2017-07-25T09:42:35.586Z,170
2017-07-25T09:43:01.038Z,165
2017-07-25T09:43:26.536Z,155
2017-07-25T09:43:52.015Z,150
2017-07-25T09:44:17.432Z,155
2017-07-25T09:44:42.877Z,160
2017-07-25T09:45:08.315Z,160
2017-07-25T09:45:33.810Z,160
2017-07-25T09:45:59.267Z,155
2017-07-25T09:46:24.700Z,145
2017-07-25T09:46:50.191Z,145
2017-07-25T09:47:15.650Z,150
2017-07-25T09:47:41.112Z,155
2017-07-25T09:48:06.572Z,160
2017-07-25T09:48:32.025Z,160
2017-07-25T09:48:57.499Z,155
2017-07-25T09:49:22.958Z,150
2017-07-25T09:49:48.430Z,145
2017-07-25T09:50:13.889Z,145
2017-07-25T09:50:39.373Z,150
2017-07-25T09:51:04.869Z,165
2017-07-25T09:51:30.340Z,150
2017-07-25T09:51:55.825Z,140
2017-07-25T09:52:21.253Z,145
2017-07-25T09:52:46.809Z,155
2017-07-25T09:53:12.244Z,150
2017-07-25T09:53:37.713Z,145
2017-07-25T09:54:03.205Z,140
2017-07-25T09:54:28.659Z,120
2017-07-25T09:54:54.172Z,95
2017-07-25T09:55:19.645Z,90
2017-07-25T09:55:45.094Z,95
2017-07-25T09:56:10.518Z,110
2017-07-25T09:56:35.987Z,130
2017-07-25T09:57:01.448Z,145
2017-07-25T09:57:27.099Z,145
2017-07-25T09:57:52.535Z,125
2017-07-25T09:58:17.995Z,120
2017-07-25T09:58:43.400Z,100
2017-07-25T09:59:08.856Z,115
2017-07-25T09:59:34.293Z,130
2017-07-25T09:59:59.727Z,125
2017-07-25T10:00:25.182Z,115
2017-07-25T10:00:50.699Z,105
2017-07-25T10:01:16.140Z,115
2017-07-25T10:01:41.582Z,125
2017-07-25T10:02:07.035Z,120
2017-07-25T10:02:32.472Z,120
2017-07-25T10:02:57.970Z,115
2017-07-25T10:03:23.409Z,110
2017-07-25T10:03:48.860Z,110
2017-07-25T10:04:14.322Z,115
2017-07-25T10:04:39.799Z,115
2017-07-25T10:05:05.241Z,120
2017-07-25T10:05:30.705Z,120
2017-07-25T10:05:56.186Z,120
2017-07-25T10:06:21.654Z,105
2017-07-25T10:06:47.125Z,110
2017-07-25T10:07:12.596Z,110
2017-07-25T10:07:38.028Z,100
2017-07-25T10:08:03.524Z,95
2017-07-25T10:08:28.991Z,105
2017-07-25T10:08:54.470Z,120
2017-07-25T10:09:19.884Z,115
2017-07-25T10:09:45.408Z,90
2017-07-25T10:10:10.859Z,80
2017-07-25T10:10:36.293Z,85
2017-07-25T10:11:01.772Z,85
2017-07-25T10:11:27.266Z,90
2017-07-25T10:11:52.694Z,85
2017-07-25T10:12:18.154Z,85
2017-07-25T10:12:43.628Z,80
2017-07-25T10:13:09.137Z,85
2017-07-25T10:13:34.534Z,105
2017-07-25T10:14:00.075Z,95
2017-07-25T10:14:25.451Z,85
2017-07-25T10:14:50.930Z,80
2017-07-25T10:15:16.460Z,65
2017-07-25T10:15:41.865Z,60
2017-07-25T10:16:07.378Z,50
2017-07-25T10:16:32.943Z,40
2017-07-25T10:16:58.341Z,35
2017-07-25T10:17:23.808Z,30
2017-07-25T10:17:49.233Z,25
2017-07-25T10:18:14.703Z,20
2017-07-25T10:18:40.131Z,20
2017-07-25T10:19:05.593Z,25
2017-07-25T10:19:31.042Z,40
2017-07-25T10:19:56.507Z,45
2017-07-25T10:20:21.980Z,40
2017-07-25T10:20:47.434Z,45
2017-07-25T10:21:12.867Z,70
2017-07-25T10:21:38.323Z,85
2017-07-25T10:22:03.774Z,110
2017-07-25T10:22:29.317Z,125
2017-07-25T10:22:54.797Z,120
2017-07-25T10:23:20.272Z,115
2017-07-25T10:23:45.855Z,115
2017-07-25T10:24:11.243Z,120
2017-07-25T10:24:36.772Z,115
2017-07-25T10:25:02.205Z,160
2017-07-25T10:25:27.693Z,210
2017-07-25T10:25:53.178Z,210
2017-07-25T10:26:18.629Z,185
2017-07-25T10:26:44.093Z,145
2017-07-25T10:27:09.607Z,100
2017-07-25T10:27:35.050Z,100
2017-07-25T10:28:00.548Z,150
2017-07-25T10:28:25.962Z,150
2017-07-25T10:28:51.455Z,115
2017-07-25T10:29:16.896Z,130
2017-07-25T10:29:42.336Z,135
2017-07-25T10:30:07.841Z,135
2017-07-25T10:30:33.329Z,160
2017-07-25T10:30:58.790Z,185
2017-07-25T10:31:24.241Z,200
2017-07-25T10:31:49.698Z,195
2017-07-25T10:32:15.148Z,185
2017-07-25T10:32:40.622Z,180
2017-07-25T10:33:06.069Z,185
2017-07-25T10:33:31.558Z,175
2017-07-25T10:33:57.056Z,185
2017-07-25T10:34:22.537Z,175
2017-07-25T10:34:48.165Z,170
2017-07-25T10:35:13.631Z,180
2017-07-25T10:35:39.126Z,165
2017-07-25T10:36:04.600Z,185
2017-07-25T10:36:30.073Z,190
2017-07-25T10:36:55.513Z,220
2017-07-25T10:37:20.997Z,225
2017-07-25T10:37:46.447Z,210
2017-07-25T10:38:11.944Z,175
2017-07-25T10:38:37.438Z,190
2017-07-25T10:39:02.907Z,235
2017-07-25T10:39:28.406Z,240
2017-07-25T10:39:53.836Z,240
2017-07-25T10:40:19.274Z,230
2017-07-25T10:40:44.770Z,225
2017-07-25T10:41:10.189Z,240
2017-07-25T10:41:35.679Z,235
2017-07-25T10:42:01.115Z,220
2017-07-25T10:42:26.557Z,205
2017-07-25T10:42:52.007Z,195
2017-07-25T10:43:17.485Z,195
2017-07-25T10:43:42.908Z,180
2017-07-25T10:44:08.392Z,190
2017-07-25T10:44:33.878Z,185
2017-07-25T10:44:59.338Z,180
2017-07-25T10:45:24.767Z,190
2017-07-25T10:45:50.207Z,185
2017-07-25T10:46:15.641Z,175
2017-07-25T10:46:41.149Z,180
2017-07-25T10:47:06.623Z,205
2017-07-25T10:47:32.049Z,205
2017-07-25T10:47:57.522Z,220
2017-07-25T10:48:22.968Z,220
2017-07-25T10:48:48.430Z,220
2017-07-25T10:49:13.855Z,195
2017-07-25T10:49:39.291Z,190
2017-07-25T10:50:04.753Z,175
2017-07-25T10:50:30.148Z,165
2017-07-25T10:50:55.632Z,170
2017-07-25T10:51:21.071Z,150
2017-07-25T10:51:46.612Z,125
2017-07-25T10:52:12.001Z,120
2017-07-25T10:52:37.493Z,115
2017-07-25T10:53:02.973Z,130
2017-07-25T10:53:28.414Z,120
2017-07-25T10:53:53.941Z,100
2017-07-25T10:54:19.371Z,105
2017-07-25T10:54:44.816Z,100
2017-07-25T10:55:10.296Z,95
2017-07-25T10:55:35.728Z,95
2017-07-25T10:56:01.170Z,95
2017-07-25T10:56:26.642Z,90
2017-07-25T10:56:52.074Z,85
2017-07-25T10:57:17.520Z,90
2017-07-25T10:57:43.060Z,95
2017-07-25T10:58:08.554Z,95
2017-07-25T10:58:34.070Z,90
2017-07-25T10:58:59.494Z,85
2017-07-25T10:59:24.943Z,100
2017-07-25T10:59:50.396Z,120
2017-07-25T11:00:15.928Z,135
2017-07-25T11:00:41.338Z,135
2017-07-25T11:01:06.809Z,140
2017-07-25T11:01:32.271Z,145
2017-07-25T11:01:57.722Z,120
2017-07-25T11:02:23.177Z,120
2017-07-25T11:02:48.628Z,105
2017-07-25T11:03:14.109Z,130
2017-07-25T11:03:39.553Z,150
2017-07-25T11:04:04.982Z,150
2017-07-25T11:04:30.415Z,175
2017-07-25T11:04:55.904Z,155
2017-07-25T11:05:21.331Z,145
2017-07-25T11:05:46.855Z,170
2017-07-25T11:06:12.294Z,225
2017-07-25T11:06:37.749Z,210
2017-07-25T11:07:03.214Z,195
2017-07-25T11:07:28.661Z,215
2017-07-25T11:07:54.116Z,195
2017-07-25T11:08:19.605Z,235
2017-07-25T11:08:45.112Z,205
2017-07-25T11:09:10.624Z,165
2017-07-25T11:09:36.048Z,165
2017-07-25T11:10:01.588Z,140
2017-07-25T11:10:27.036Z,145
2017-07-25T11:10:52.518Z,160
2017-07-25T11:11:17.972Z,195
2017-07-25T11:11:43.426Z,195
2017-07-25T11:12:08.925Z,180
2017-07-25T11:12:34.346Z,200
2017-07-25T11:12:59.814Z,200
2017-07-25T11:13:25.284Z,195
2017-07-25T11:13:50.757Z,220
2017-07-25T11:14:16.163Z,225
2017-07-25T11:14:41.624Z,215
2017-07-25T11:15:07.139Z,205
2017-07-25T11:15:32.693Z,235
2017-07-25T11:15:58.147Z,240
2017-07-25T11:16:23.618Z,245
2017-07-25T11:16:49.120Z,245
2017-07-25T11:17:14.575Z,240
2017-07-25T11:17:40.085Z,245
2017-07-25T11:18:05.585Z,240
2017-07-25T11:18:31.023Z,235
2017-07-25T11:18:56.518Z,230
2017-07-25T11:19:21.986Z,210
2017-07-25T11:19:47.515Z,235
2017-07-25T11:20:12.884Z,255
2017-07-25T11:20:38.322Z,255
2017-07-25T11:21:03.815Z,270
2017-07-25T11:21:29.250Z,270
2017-07-25T11:21:54.702Z,290
2017-07-25T11:22:20.188Z,290
2017-07-25T11:22:45.641Z,300
2017-07-25T11:23:11.096Z,305
2017-07-25T11:23:36.550Z,285
2017-07-25T11:24:02.031Z,270
2017-07-25T11:24:27.468Z,275
2017-07-25T11:24:52.984Z,245
2017-07-25T11:25:18.452Z,280
2017-07-25T11:25:43.972Z,305
2017-07-25T11:26:09.461Z,325
2017-07-25T11:26:34.884Z,315
2017-07-25T11:27:00.383Z,315
2017-07-25T11:27:25.896Z,335
2017-07-25T11:27:51.323Z,380